Time;durP1;ratioP1;P1;durP2;ratioP2;P2;SDS_P1;SDS_P2;PMS_P1;PMS_P2;Temp;Humidity;BMP_temperature;BMP_pressure;BME280_temperature;BME280_humidity;BME280_pressure;Samples;Min_cycle;Max_cycle;Signal;HPM_P1;HPM_P2
2021/04/22 00:01:06;;;;;;;425.23;98.87;;;;;;;;;;5007667;28;20454;-66
2021/04/22 00:03:32;;;;;;;431.40;99.60;;;;;;;;;;4972781;28;20418;-65
2021/04/22 00:05:58;;;;;;;431.17;106.13;;;;;;;;;;4976813;28;20564;-65
2021/04/22 00:08:24;;;;;;;456.08;109.30;;;;;;;;;;4991854;28;20699;-65
2021/04/22 00:10:51;;;;;;;432.80;101.37;;;;;;;;;;4991124;28;20174;-65
2021/04/22 00:13:20;;;;;;;438.63;110.15;;;;;;;;;;4972097;28;20418;-66
2021/04/22 00:15:47;;;;;;;428.05;109.88;;;;;;;;;;4990711;28;20183;-66
2021/04/22 00:18:13;;;;;;;443.88;115.40;;;;;;;;;;4991194;28;20170;-64
2021/04/22 00:20:39;;;;;;;465.88;118.10;;;;;;;;;;4991102;28;20170;-65
2021/04/22 00:23:09;;;;;;;485.33;140.00;;;;;;;;;;4991721;28;20166;-65
2021/04/22 00:25:34;;;;;;;504.83;145.32;;;;;;;;;;4971779;28;20190;-65
2021/04/22 00:28:02;;;;;;;485.48;131.65;;;;;;;;;;4972087;28;20190;-65
2021/04/22 00:30:28;;;;;;;471.48;124.50;;;;;;;;;;4974131;28;20748;-66
2021/04/22 00:32:54;;;;;;;486.70;123.78;;;;;;;;;;4971864;28;20173;-66
2021/04/22 00:35:20;;;;;;;455.47;104.10;;;;;;;;;;4972164;28;20265;-65
2021/04/22 00:37:46;;;;;;;463.70;113.43;;;;;;;;;;4971849;28;20413;-65
2021/04/22 00:40:17;;;;;;;463.83;107.88;;;;;;;;;;4971467;28;20186;-65
2021/04/22 00:42:43;;;;;;;446.17;105.07;;;;;;;;;;4971986;28;20575;-65
2021/04/22 00:45:10;;;;;;;462.38;113.18;;;;;;;;;;4971557;28;20232;-65
2021/04/22 00:47:36;;;;;;;459.63;108.97;;;;;;;;;;4988274;28;20198;-64
2021/04/22 00:50:02;;;;;;;444.25;105.47;;;;;;;;;;4990648;28;20662;-65
2021/04/22 00:52:28;;;;;;;440.45;100.65;;;;;;;;;;4991334;28;20530;-64
2021/04/22 00:54:54;;;;;;;453.73;101.80;;;;;;;;;;4990896;28;20550;-65
2021/04/22 00:57:20;;;;;;;466.87;105.63;;;;;;;;;;4992611;28;20167;-65
2021/04/22 00:59:46;;;;;;;455.23;109.47;;;;;;;;;;4975915;28;20458;-65
2021/04/22 01:02:13;;;;;;;457.37;103.07;;;;;;;;;;4990699;28;20179;-65
2021/04/22 01:04:40;;;;;;;453.13;100.38;;;;;;;;;;4985277;28;21057;-66
2021/04/22 01:07:06;;;;;;;443.48;108.20;;;;;;;;;;4974424;28;20175;-65
2021/04/22 01:09:32;;;;;;;462.33;148.85;;;;;;;;;;4976665;28;20569;-65
2021/04/22 01:12:00;;;;;;;459.20;107.57;;;;;;;;;;4978595;28;20233;-65
2021/04/22 01:14:26;;;;;;;451.08;101.28;;;;;;;;;;4971333;28;20398;-65
2021/04/22 01:16:52;;;;;;;444.37;102.67;;;;;;;;;;4971816;28;20657;-65
2021/04/22 01:19:18;;;;;;;446.23;101.63;;;;;;;;;;4971705;28;20425;-65
2021/04/22 01:21:44;;;;;;;446.77;106.30;;;;;;;;;;4990884;28;20661;-66
2021/04/22 01:24:10;;;;;;;446.30;102.80;;;;;;;;;;4990645;28;20774;-67
2021/04/22 01:26:37;;;;;;;435.00;99.45;;;;;;;;;;4990830;28;20646;-64
2021/04/22 01:29:05;;;;;;;432.63;94.68;;;;;;;;;;4990356;28;20209;-65
2021/04/22 01:31:31;;;;;;;441.27;106.35;;;;;;;;;;4986389;28;20174;-65
2021/04/22 01:34:04;;;;;;;431.23;95.22;;;;;;;;;;4976259;28;20182;-65
2021/04/22 01:36:31;;;;;;;437.02;96.53;;;;;;;;;;4971476;28;20173;-65
2021/04/22 01:38:57;;;;;;;443.27;100.40;;;;;;;;;;4971999;28;20194;-66
2021/04/22 01:41:23;;;;;;;461.70;110.73;;;;;;;;;;4979720;28;20184;-65
2021/04/22 01:43:49;;;;;;;76.63;68.47;;;;;;;;;;4971424;28;20411;-65
2021/04/22 01:46:15;;;;;;;20.80;19.30;;;;;;;;;;4974487;28;20417;-65
2021/04/22 01:48:41;;;;;;;291.67;110.97;;;;;;;;;;4980894;28;20466;-66
2021/04/22 01:51:08;;;;;;;232.77;78.93;;;;;;;;;;4977881;28;20445;-65
2021/04/22 01:53:34;;;;;;;323.83;99.13;;;;;;;;;;4974977;28;20489;-65
2021/04/22 01:56:00;;;;;;;2.30;2.20;;;;;;;;;;4985657;28;20511;-65
2021/04/22 01:58:26;;;;;;;358.27;91.77;;;;;;;;;;4995317;28;20448;-65
2021/04/22 02:00:54;;;;;;;475.42;110.90;;;;;;;;;;4993294;28;20425;-66
2021/04/22 02:03:20;;;;;;;397.98;92.15;;;;;;;;;;4978922;28;20495;-66
2021/04/22 02:05:47;;;;;;;0.70;0.60;;;;;;;;;;4980768;28;20209;-66
2021/04/22 02:08:13;;;;;;;0.90;0.80;;;;;;;;;;4982483;28;20465;-66
2021/04/22 02:10:39;;;;;;;0.70;0.43;;;;;;;;;;4978984;28;20402;-66
2021/04/22 02:13:06;;;;;;;0.70;0.50;;;;;;;;;;4994095;28;20409;-65
2021/04/22 02:15:33;;;;;;;299.23;78.93;;;;;;;;;;4976404;28;20410;-65
2021/04/22 02:17:59;;;;;;;0.70;0.50;;;;;;;;;;4993094;28;20912;-66
2021/04/22 02:20:25;;;;;;;1.10;0.80;;;;;;;;;;4981389;28;20443;-65
2021/04/22 02:22:51;;;;;;;1.17;0.73;;;;;;;;;;4974586;28;20885;-65
2021/04/22 02:25:18;;;;;;;1.50;1.40;;;;;;;;;;4974047;28;20567;-65
2021/04/22 02:27:45;;;;;;;448.88;106.38;;;;;;;;;;4980501;28;20969;-65
2021/04/22 02:30:13;;;;;;;269.85;95.43;;;;;;;;;;4991159;28;20191;-65
2021/04/22 02:32:39;;;;;;;395.08;95.75;;;;;;;;;;4993592;28;20194;-64
2021/04/22 02:35:06;;;;;;;461.13;107.55;;;;;;;;;;4993615;28;20694;-65
2021/04/22 02:37:32;;;;;;;461.10;107.45;;;;;;;;;;4993112;28;20167;-64
2021/04/22 02:39:58;;;;;;;49.20;45.07;;;;;;;;;;4992955;28;20210;-65
2021/04/22 02:42:24;;;;;;;110.30;88.83;;;;;;;;;;4975526;28;20434;-66
2021/04/22 02:44:50;;;;;;;358.67;107.83;;;;;;;;;;4975565;28;20511;-65
2021/04/22 02:47:16;;;;;;;474.77;112.73;;;;;;;;;;4977397;28;20398;-66
2021/04/22 02:49:42;;;;;;;461.63;113.70;;;;;;;;;;4994928;28;20461;-66
2021/04/22 02:52:08;;;;;;;0.70;0.67;;;;;;;;;;4994969;28;20402;-66
2021/04/22 02:54:34;;;;;;;173.17;50.20;;;;;;;;;;4975823;28;20419;-66
2021/04/22 02:57:00;;;;;;;470.45;125.72;;;;;;;;;;4974723;28;20526;-66
2021/04/22 02:59:26;;;;;;;467.93;109.87;;;;;;;;;;4973661;28;20306;-66
2021/04/22 03:01:52;;;;;;;439.50;103.40;;;;;;;;;;4956868;28;20419;-66
2021/04/22 03:04:18;;;;;;;423.53;97.83;;;;;;;;;;4974554;28;20452;-66
2021/04/22 03:06:44;;;;;;;453.93;110.10;;;;;;;;;;4991791;28;20455;-66
2021/04/22 03:09:10;;;;;;;446.17;105.67;;;;;;;;;;4993081;28;20495;-66
2021/04/22 03:11:36;;;;;;;471.90;106.40;;;;;;;;;;4994185;28;20426;-67
2021/04/22 03:14:03;;;;;;;473.40;108.83;;;;;;;;;;4978041;28;20181;-66
2021/04/22 03:16:29;;;;;;;435.02;97.95;;;;;;;;;;4974202;28;20406;-66
2021/04/22 03:18:55;;;;;;;467.00;105.63;;;;;;;;;;4993705;28;20209;-66
2021/04/22 03:21:21;;;;;;;428.42;97.55;;;;;;;;;;4993434;28;20405;-66
2021/04/22 03:23:47;;;;;;;16.73;6.37;;;;;;;;;;4994584;28;20708;-66
2021/04/22 03:26:13;;;;;;;352.00;84.47;;;;;;;;;;4986029;28;20423;-65
2021/04/22 03:28:38;;;;;;;399.30;98.35;;;;;;;;;;4992941;28;20462;-67
2021/04/22 03:31:04;;;;;;;470.60;126.18;;;;;;;;;;4975360;28;20182;-66
2021/04/22 03:33:30;;;;;;;461.50;141.57;;;;;;;;;;4973509;28;20174;-64
2021/04/22 03:35:56;;;;;;;98.90;56.70;;;;;;;;;;4975435;28;20403;-66
2021/04/22 03:38:22;;;;;;;442.60;167.43;;;;;;;;;;4973876;28;20403;-65
2021/04/22 03:40:48;;;;;;;350.80;83.43;;;;;;;;;;4972484;28;20628;-66
2021/04/22 03:43:14;;;;;;;477.73;125.57;;;;;;;;;;4992144;28;20448;-66
2021/04/22 03:45:40;;;;;;;440.07;106.80;;;;;;;;;;4991513;28;20629;-66
2021/04/22 03:48:07;;;;;;;431.33;105.30;;;;;;;;;;4987521;28;20990;-65
2021/04/22 03:50:33;;;;;;;28.83;25.63;;;;;;;;;;4985861;28;20441;-65
2021/04/22 03:52:59;;;;;;;89.83;81.67;;;;;;;;;;4991013;28;20468;-66
2021/04/22 03:55:25;;;;;;;472.63;135.10;;;;;;;;;;4974215;28;20388;-65
2021/04/22 03:57:51;;;;;;;452.17;143.43;;;;;;;;;;4997199;28;20405;-65
2021/04/22 04:00:18;;;;;;;466.20;140.95;;;;;;;;;;5037391;22;20221;-68
2021/04/22 04:02:45;;;;;;;465.42;141.93;;;;;;;;;;5026049;28;20166;-68
2021/04/22 04:05:11;;;;;;;493.13;200.48;;;;;;;;;;5019258;28;20195;-67
2021/04/22 04:07:37;;;;;;;469.70;146.13;;;;;;;;;;5029294;28;20182;-68
2021/04/22 04:10:05;;;;;;;456.85;129.25;;;;;;;;;;5018327;28;20290;-67
2021/04/22 04:12:30;;;;;;;455.40;127.38;;;;;;;;;;4991560;28;20172;-67
2021/04/22 04:14:56;;;;;;;460.98;141.05;;;;;;;;;;5010281;28;20215;-67
2021/04/22 04:17:23;;;;;;;483.93;137.13;;;;;;;;;;5008738;28;20178;-68
2021/04/22 04:19:49;;;;;;;468.85;147.75;;;;;;;;;;5011066;28;20710;-67
2021/04/22 04:22:15;;;;;;;186.67;78.73;;;;;;;;;;5011405;28;20252;-68
2021/04/22 04:24:41;;;;;;;464.47;132.17;;;;;;;;;;5009816;28;20992;-67
2021/04/22 04:27:07;;;;;;;447.73;111.30;;;;;;;;;;5011197;28;20912;-68
2021/04/22 04:29:33;;;;;;;419.77;103.95;;;;;;;;;;5010548;28;20452;-67
2021/04/22 04:31:59;;;;;;;438.67;113.37;;;;;;;;;;5007385;28;20167;-67
2021/04/22 04:34:25;;;;;;;0.70;0.50;;;;;;;;;;5010702;28;20420;-68
2021/04/22 04:36:51;;;;;;;0.70;0.60;;;;;;;;;;5002912;28;20409;-69
2021/04/22 04:39:17;;;;;;;1.00;0.50;;;;;;;;;;5000309;28;20495;-68
2021/04/22 04:41:43;;;;;;;0.70;0.50;;;;;;;;;;5007358;28;20858;-66
2021/04/22 04:44:09;;;;;;;433.35;127.10;;;;;;;;;;5000166;28;20471;-67
2021/04/22 04:46:38;;;;;;;431.50;115.45;;;;;;;;;;5002136;28;20579;-68
2021/04/22 04:49:05;;;;;;;343.10;88.03;;;;;;;;;;5010151;28;20624;-68
2021/04/22 04:51:31;;;;;;;1.17;0.80;;;;;;;;;;5010849;28;20488;-68
2021/04/22 04:53:57;;;;;;;456.27;120.13;;;;;;;;;;5011017;28;20757;-68
2021/04/22 04:56:23;;;;;;;512.10;231.05;;;;;;;;;;5005051;28;20420;-68
2021/04/22 04:58:49;;;;;;;459.50;110.00;;;;;;;;;;5012687;28;20520;-68
2021/04/22 05:01:16;;;;;;;472.53;115.87;;;;;;;;;;5004626;28;20444;-67
2021/04/22 05:03:42;;;;;;;3.50;3.10;;;;;;;;;;5010331;28;20480;-67
2021/04/22 05:06:08;;;;;;;1.30;0.90;;;;;;;;;;5010009;28;20435;-67
2021/04/22 05:08:34;;;;;;;1.30;0.90;;;;;;;;;;5008549;28;20456;-69
2021/04/22 05:11:00;;;;;;;0.70;0.43;;;;;;;;;;5008979;28;20444;-69
2021/04/22 05:13:27;;;;;;;467.25;129.90;;;;;;;;;;5010292;28;20408;-68
2021/04/22 05:15:53;;;;;;;519.17;190.52;;;;;;;;;;5010268;28;20227;-68
2021/04/22 05:18:19;;;;;;;147.43;46.03;;;;;;;;;;5008722;28;20660;-68
2021/04/22 05:20:45;;;;;;;0.83;0.60;;;;;;;;;;5013105;28;20417;-68
2021/04/22 05:23:11;;;;;;;2.80;0.87;;;;;;;;;;5012398;28;20404;-69
2021/04/22 05:25:37;;;;;;;0.70;0.50;;;;;;;;;;5012938;28;20422;-68
2021/04/22 05:28:03;;;;;;;0.90;0.80;;;;;;;;;;5014340;28;20448;-68
2021/04/22 05:30:29;;;;;;;2.70;1.30;;;;;;;;;;5012550;28;20481;-68
2021/04/22 05:32:55;;;;;;;7.90;2.30;;;;;;;;;;5012838;28;20410;-69
2021/04/22 05:35:20;;;;;;;0.80;0.63;;;;;;;;;;5012361;28;20437;-67
2021/04/22 05:37:46;;;;;;;0.70;0.50;;;;;;;;;;5007778;28;20446;-73
2021/04/22 05:40:13;;;;;;;0.80;0.70;;;;;;;;;;5033264;28;20533;-69
2021/04/22 05:42:39;;;;;;;0.70;0.50;;;;;;;;;;5007075;28;20424;-69
2021/04/22 05:45:06;;;;;;;1.13;1.03;;;;;;;;;;5011304;28;20426;-70
2021/04/22 05:47:32;;;;;;;0.70;0.50;;;;;;;;;;5010457;28;20428;-69
2021/04/22 05:49:58;;;;;;;0.70;0.50;;;;;;;;;;5002975;28;21817;-69
2021/04/22 05:52:24;;;;;;;0.70;0.50;;;;;;;;;;5004925;28;20956;-69
2021/04/22 05:54:50;;;;;;;1.00;0.90;;;;;;;;;;5011113;28;20537;-68
2021/04/22 05:57:15;;;;;;;0.70;0.50;;;;;;;;;;5012224;28;20965;-69
2021/04/22 05:59:41;;;;;;;0.70;0.50;;;;;;;;;;5021393;28;20496;-68
2021/04/22 06:02:08;;;;;;;1.07;0.97;;;;;;;;;;5010183;28;20788;-69
2021/04/22 06:04:34;;;;;;;0.70;0.50;;;;;;;;;;5010809;28;20429;-69
2021/04/22 06:07:00;;;;;;;0.70;0.50;;;;;;;;;;5006742;28;20445;-69
2021/04/22 06:09:26;;;;;;;5.13;0.70;;;;;;;;;;5007699;28;20492;-68
2021/04/22 06:11:52;;;;;;;0.70;0.40;;;;;;;;;;5002412;28;20386;-69
2021/04/22 06:14:18;;;;;;;0.80;0.70;;;;;;;;;;5004851;28;20426;-69
2021/04/22 06:16:44;;;;;;;0.70;0.60;;;;;;;;;;5000705;28;20383;-68
2021/04/22 06:19:10;;;;;;;6.37;2.80;;;;;;;;;;4997615;28;20517;-68
2021/04/22 06:21:36;;;;;;;5.97;1.13;;;;;;;;;;5001640;28;20505;-69
2021/04/22 06:24:02;;;;;;;152.20;114.93;;;;;;;;;;5001979;28;20975;-69
2021/04/22 06:26:31;;;;;;;29.53;19.17;;;;;;;;;;5000015;28;20816;-69
2021/04/22 06:29:00;;;;;;;0.77;0.57;;;;;;;;;;5003119;28;20823;-69
2021/04/22 06:31:26;;;;;;;5.03;1.37;;;;;;;;;;5002862;28;20431;-70
2021/04/22 06:33:52;;;;;;;0.70;0.50;;;;;;;;;;5005877;28;20431;-70
2021/04/22 06:36:19;;;;;;;223.43;107.20;;;;;;;;;;5009196;28;20428;-69
2021/04/22 06:38:45;;;;;;;41.50;31.50;;;;;;;;;;5007650;28;20453;-69
2021/04/22 06:41:11;;;;;;;133.60;82.97;;;;;;;;;;5005159;28;20481;-69
2021/04/22 06:43:37;;;;;;;449.33;134.13;;;;;;;;;;5007708;28;20425;-70
2021/04/22 06:46:03;;;;;;;0.90;0.70;;;;;;;;;;5012830;28;20501;-70
2021/04/22 06:48:29;;;;;;;31.90;29.97;;;;;;;;;;5010160;28;20464;-69
2021/04/22 06:50:55;;;;;;;392.53;122.27;;;;;;;;;;5007377;28;20797;-69
2021/04/22 06:53:21;;;;;;;352.63;159.97;;;;;;;;;;5004758;28;20774;-69
2021/04/22 06:55:47;;;;;;;502.42;195.18;;;;;;;;;;5010332;28;20432;-70
2021/04/22 06:58:13;;;;;;;220.52;106.45;;;;;;;;;;5015779;28;20171;-71
2021/04/22 07:00:42;;;;;;;482.55;176.57;;;;;;;;;;5028185;28;20226;-69
2021/04/22 07:03:09;;;;;;;55.00;49.53;;;;;;;;;;5018522;28;20269;-67
2021/04/22 07:05:35;;;;;;;422.40;164.57;;;;;;;;;;4999655;28;20403;-69
2021/04/22 07:08:01;;;;;;;3.13;2.90;;;;;;;;;;5000393;28;20686;-69
2021/04/22 07:10:27;;;;;;;505.13;203.20;;;;;;;;;;5002700;28;20434;-69
2021/04/22 07:12:53;;;;;;;162.53;93.77;;;;;;;;;;4998565;28;20546;-70
2021/04/22 07:15:19;;;;;;;151.87;97.53;;;;;;;;;;5005790;28;20428;-70
2021/04/22 07:17:46;;;;;;;140.97;78.43;;;;;;;;;;5004892;28;20417;-70
2021/04/22 07:20:14;;;;;;;1.00;0.70;;;;;;;;;;5008132;28;20809;-70
2021/04/22 07:22:40;;;;;;;0.90;0.60;;;;;;;;;;5009797;28;20415;-69
2021/04/22 07:25:07;;;;;;;0.70;0.60;;;;;;;;;;5008627;28;20417;-70
2021/04/22 07:27:33;;;;;;;2.07;1.27;;;;;;;;;;5009543;28;20417;-69
2021/04/22 07:29:59;;;;;;;0.70;0.60;;;;;;;;;;4998746;28;20831;-68
2021/04/22 07:32:25;;;;;;;1.00;0.90;;;;;;;;;;5001348;28;20497;-70
2021/04/22 07:34:51;;;;;;;1.20;1.07;;;;;;;;;;5004871;28;20544;-67
2021/04/22 07:37:18;;;;;;;1.63;1.17;;;;;;;;;;5008242;28;21220;-69
2021/04/22 07:39:44;;;;;;;1.27;1.17;;;;;;;;;;5007923;28;20468;-68
2021/04/22 07:42:10;;;;;;;0.70;0.40;;;;;;;;;;4991644;28;20500;-67
2021/04/22 07:44:37;;;;;;;216.70;108.80;;;;;;;;;;5006482;28;20421;-69
2021/04/22 07:47:03;;;;;;;46.43;43.03;;;;;;;;;;5010280;28;20439;-69
2021/04/22 07:49:30;;;;;;;1.57;1.27;;;;;;;;;;5005958;28;20489;-68
2021/04/22 07:51:56;;;;;;;1.23;1.10;;;;;;;;;;5006290;28;20474;-68
2021/04/22 07:54:22;;;;;;;1.00;0.80;;;;;;;;;;5006194;28;20470;-68
2021/04/22 07:56:48;;;;;;;0.83;0.67;;;;;;;;;;5007425;28;20938;-69
2021/04/22 07:59:14;;;;;;;0.70;0.60;;;;;;;;;;5008368;28;20460;-68
2021/04/22 08:01:40;;;;;;;0.80;0.80;;;;;;;;;;5008365;28;20862;-69
2021/04/22 08:04:06;;;;;;;1.47;1.13;;;;;;;;;;5008299;28;21085;-69
2021/04/22 08:06:33;;;;;;;0.90;0.67;;;;;;;;;;5000393;28;20420;-68
2021/04/22 08:09:00;;;;;;;0.80;0.53;;;;;;;;;;4995406;28;21053;-69
2021/04/22 08:11:26;;;;;;;7.20;1.20;;;;;;;;;;4993920;28;20436;-69
2021/04/22 08:13:52;;;;;;;0.70;0.60;;;;;;;;;;5003980;28;20420;-69
2021/04/22 08:16:18;;;;;;;0.80;0.60;;;;;;;;;;5000186;28;20425;-69
2021/04/22 08:18:44;;;;;;;1.03;0.93;;;;;;;;;;4998004;28;20877;-69
2021/04/22 08:21:10;;;;;;;8.83;1.10;;;;;;;;;;5007652;28;20501;-69
2021/04/22 08:23:36;;;;;;;0.90;0.70;;;;;;;;;;5000656;28;20878;-68
2021/04/22 08:26:07;;;;;;;0.70;0.60;;;;;;;;;;4999540;28;20429;-70
2021/04/22 08:28:34;;;;;;;5.20;0.83;;;;;;;;;;4998207;28;20550;-69
2021/04/22 08:31:06;;;;;;;0.83;0.70;;;;;;;;;;5001832;28;20530;-69
2021/04/22 08:33:33;;;;;;;4.50;1.43;;;;;;;;;;5000342;28;20406;-68
2021/04/22 08:35:59;;;;;;;1.20;1.10;;;;;;;;;;5007108;28;20408;-68
2021/04/22 08:38:25;;;;;;;0.70;0.53;;;;;;;;;;5024322;28;20512;-69
2021/04/22 08:40:53;;;;;;;1.10;0.80;;;;;;;;;;5007606;28;20466;-68
2021/04/22 08:43:19;;;;;;;0.90;0.70;;;;;;;;;;5007856;28;20851;-69
2021/04/22 08:45:45;;;;;;;0.80;0.60;;;;;;;;;;5003899;28;20424;-69
2021/04/22 08:48:11;;;;;;;2.40;1.20;;;;;;;;;;5008676;28;20460;-70
2021/04/22 08:50:38;;;;;;;0.70;0.40;;;;;;;;;;5006501;28;20442;-71
2021/04/22 08:53:08;;;;;;;2.17;1.37;;;;;;;;;;5007941;28;20397;-69
2021/04/22 08:55:35;;;;;;;1.50;1.03;;;;;;;;;;5008405;28;20439;-68
2021/04/22 08:58:03;;;;;;;1.17;1.07;;;;;;;;;;5019426;28;20442;-69
2021/04/22 09:00:31;;;;;;;0.80;0.70;;;;;;;;;;5023452;28;20456;-69
2021/04/22 09:02:57;;;;;;;1.87;1.10;;;;;;;;;;5002852;28;20448;-69
2021/04/22 09:05:23;;;;;;;0.80;0.60;;;;;;;;;;5006337;28;20426;-69
2021/04/22 09:07:50;;;;;;;1.47;1.27;;;;;;;;;;4993234;28;20407;-68
2021/04/22 09:10:19;;;;;;;1.93;1.00;;;;;;;;;;5002701;28;20432;-69
2021/04/22 09:12:55;;;;;;;1.13;0.83;;;;;;;;;;5003832;28;20508;-68
2021/04/22 09:15:21;;;;;;;0.90;0.87;;;;;;;;;;5002812;28;20458;-69
2021/04/22 09:17:54;;;;;;;1.20;0.90;;;;;;;;;;5008214;28;20936;-69
2021/04/22 09:20:25;;;;;;;5.73;1.60;;;;;;;;;;5007903;28;20427;-69
2021/04/22 09:22:51;;;;;;;1.67;0.70;;;;;;;;;;5010464;28;20424;-70
2021/04/22 09:25:17;;;;;;;1.07;0.87;;;;;;;;;;5009637;28;20459;-70
2021/04/22 09:27:43;;;;;;;3.53;1.13;;;;;;;;;;4999946;28;20503;-69
2021/04/22 09:30:10;;;;;;;1.07;0.97;;;;;;;;;;5010854;28;20432;-68
2021/04/22 09:32:38;;;;;;;1.10;0.77;;;;;;;;;;5004383;28;20825;-69
2021/04/22 09:35:07;;;;;;;1.13;1.00;;;;;;;;;;5005078;28;20444;-70
2021/04/22 09:37:37;;;;;;;2.50;0.90;;;;;;;;;;5004916;28;20776;-69
2021/04/22 09:40:23;;;;;;;1.40;1.30;;;;;;;;;;5018996;28;20438;-69
2021/04/22 09:42:50;;;;;;;0.80;0.60;;;;;;;;;;5009428;28;20431;-69
2021/04/22 09:45:17;;;;;;;1.20;0.60;;;;;;;;;;5005690;28;20445;-70
2021/04/22 09:47:44;;;;;;;1.20;1.07;;;;;;;;;;5008869;28;20478;-68
2021/04/22 09:50:14;;;;;;;3.80;0.97;;;;;;;;;;5009577;28;20437;-69
2021/04/22 09:52:42;;;;;;;2.37;1.63;;;;;;;;;;5001728;28;20882;-68
2021/04/22 09:55:09;;;;;;;0.70;0.50;;;;;;;;;;5011122;28;20503;-68
2021/04/22 09:57:35;;;;;;;0.90;0.53;;;;;;;;;;5014785;28;20416;-69
2021/04/22 10:00:02;;;;;;;1.20;0.83;;;;;;;;;;5015548;28;20459;-69
2021/04/22 10:02:28;;;;;;;2.10;1.13;;;;;;;;;;5010342;28;20927;-69
2021/04/22 10:04:56;;;;;;;0.70;0.50;;;;;;;;;;5011154;28;20428;-69
2021/04/22 10:07:29;;;;;;;0.93;0.70;;;;;;;;;;5009171;28;20514;-69
2021/04/22 10:09:59;;;;;;;1.57;1.00;;;;;;;;;;5002718;28;21103;-69
2021/04/22 10:12:43;;;;;;;2.50;0.90;;;;;;;;;;5010936;28;20416;-68
2021/04/22 10:15:10;;;;;;;1.00;0.90;;;;;;;;;;5010730;28;20926;-69
2021/04/22 10:17:36;;;;;;;2.80;1.43;;;;;;;;;;5007853;28;20448;-69
2021/04/22 10:20:02;;;;;;;0.80;0.60;;;;;;;;;;5010315;28;20530;-68
2021/04/22 10:22:38;;;;;;;0.70;0.50;;;;;;;;;;5011112;28;21043;-69
2021/04/22 10:25:08;;;;;;;34.27;3.17;;;;;;;;;;5008275;28;20431;-68
2021/04/22 10:27:35;;;;;;;5.50;2.00;;;;;;;;;;5010804;28;20418;-70
2021/04/22 10:30:01;;;;;;;2.07;0.83;;;;;;;;;;5010510;28;20473;-70
2021/04/22 10:32:27;;;;;;;0.90;0.60;;;;;;;;;;5013845;28;20432;-70
2021/04/22 10:34:54;;;;;;;1.07;0.67;;;;;;;;;;5009301;28;20409;-69
2021/04/22 10:37:21;;;;;;;0.87;0.70;;;;;;;;;;5009895;28;20407;-69
2021/04/22 10:39:47;;;;;;;0.87;0.67;;;;;;;;;;5002223;28;20452;-71
2021/04/22 10:42:14;;;;;;;0.80;0.63;;;;;;;;;;5005408;28;20435;-69
2021/04/22 10:44:40;;;;;;;1.63;1.20;;;;;;;;;;5010475;28;20413;-68
2021/04/22 10:47:06;;;;;;;2.30;0.80;;;;;;;;;;5008878;28;20415;-68
2021/04/22 10:49:33;;;;;;;112.83;67.53;;;;;;;;;;5021155;23;20488;-75
2021/04/22 10:52:01;;;;;;;15.90;14.20;;;;;;;;;;5011149;28;20428;-77
2021/04/22 10:54:27;;;;;;;0.70;0.40;;;;;;;;;;5011486;28;20411;-77
2021/04/22 10:57:06;;;;;;;0.70;0.50;;;;;;;;;;5011834;28;20418;-78
2021/04/22 10:59:34;;;;;;;0.80;0.50;;;;;;;;;;4988555;28;20929;-77
2021/04/22 11:02:00;;;;;;;1.27;1.10;;;;;;;;;;4988021;28;20399;-75
2021/04/22 11:04:35;;;;;;;1.00;0.90;;;;;;;;;;4986654;28;20601;-77
2021/04/22 11:07:01;;;;;;;2.20;1.10;;;;;;;;;;4999021;28;20403;-78
2021/04/22 11:09:34;;;;;;;2.50;2.30;;;;;;;;;;4995725;28;20599;-75
2021/04/22 11:12:01;;;;;;;0.80;0.70;;;;;;;;;;4996808;28;20427;-75
2021/04/22 11:14:34;;;;;;;3.93;1.60;;;;;;;;;;4987333;28;20425;-77
2021/04/22 11:17:00;;;;;;;1.00;0.60;;;;;;;;;;4985791;28;20959;-77
2021/04/22 11:19:32;;;;;;;1.10;0.77;;;;;;;;;;4986365;28;20384;-76
2021/04/22 11:22:06;;;;;;;1.00;0.67;;;;;;;;;;4981720;28;20904;-77
2021/04/22 11:24:42;;;;;;;1.87;0.80;;;;;;;;;;4984743;28;20487;-76
2021/04/22 11:27:15;;;;;;;0.80;0.70;;;;;;;;;;4982929;28;20392;-75
2021/04/22 11:29:54;;;;;;;0.90;0.70;;;;;;;;;;4985247;28;20449;-77
2021/04/22 11:32:34;;;;;;;9.20;3.17;;;;;;;;;;4990340;28;20438;-75
2021/04/22 11:35:05;;;;;;;1.33;0.97;;;;;;;;;;4982619;28;20808;-75
2021/04/22 11:37:36;;;;;;;3.80;0.93;;;;;;;;;;4988150;28;20421;-76
2021/04/22 11:40:13;;;;;;;2.60;0.80;;;;;;;;;;4985700;28;20412;-75
2021/04/22 11:42:40;;;;;;;0.90;0.53;;;;;;;;;;4983495;28;20726;-75
2021/04/22 11:45:08;;;;;;;0.70;0.50;;;;;;;;;;4989254;28;20503;-75
2021/04/22 11:47:35;;;;;;;0.90;0.70;;;;;;;;;;4989808;28;20445;-76
2021/04/22 11:50:11;;;;;;;0.80;0.77;;;;;;;;;;4991910;28;20457;-75
2021/04/22 11:52:48;;;;;;;0.90;0.73;;;;;;;;;;4989891;28;20512;-73
2021/04/22 11:55:20;;;;;;;1.63;0.97;;;;;;;;;;4990557;28;20416;-75
2021/04/22 11:58:09;;;;;;;1.00;0.90;;;;;;;;;;4995885;28;20424;-74
2021/04/22 12:00:40;;;;;;;0.80;0.50;;;;;;;;;;4996546;28;20422;-75
2021/04/22 12:03:08;;;;;;;0.73;0.60;;;;;;;;;;4991953;28;20418;-74
2021/04/22 12:05:35;;;;;;;0.80;0.70;;;;;;;;;;4991150;28;21039;-77
2021/04/22 12:08:05;;;;;;;12.93;1.43;;;;;;;;;;4991286;28;20471;-75
2021/04/22 12:10:32;;;;;;;0.80;0.60;;;;;;;;;;4991274;28;20418;-77
2021/04/22 12:13:12;;;;;;;1.20;0.60;;;;;;;;;;4990124;28;20422;-77
2021/04/22 12:15:39;;;;;;;1.23;0.87;;;;;;;;;;4990257;28;20409;-76
2021/04/22 12:18:06;;;;;;;1.47;1.37;;;;;;;;;;4989986;28;20496;-74
2021/04/22 12:20:32;;;;;;;1.07;0.97;;;;;;;;;;4991672;28;20406;-73
2021/04/22 12:22:58;;;;;;;0.80;0.50;;;;;;;;;;4991446;28;20493;-74
2021/04/22 12:25:25;;;;;;;2.93;0.90;;;;;;;;;;4990973;28;20414;-74
2021/04/22 12:28:01;;;;;;;32.37;1.60;;;;;;;;;;4989683;28;20430;-78
2021/04/22 12:30:27;;;;;;;1.53;1.43;;;;;;;;;;4980143;28;20813;-75
2021/04/22 12:32:58;;;;;;;1.63;0.90;;;;;;;;;;4987123;28;20465;-76
2021/04/22 12:35:27;;;;;;;1.47;1.30;;;;;;;;;;4984747;28;20495;-76
2021/04/22 12:37:54;;;;;;;6.13;1.27;;;;;;;;;;4987334;28;20460;-75
2021/04/22 12:40:20;;;;;;;1.97;0.70;;;;;;;;;;4988385;28;20501;-76
2021/04/22 12:42:46;;;;;;;17.70;1.60;;;;;;;;;;4990025;28;20420;-74
2021/04/22 12:45:14;;;;;;;53.40;48.90;;;;;;;;;;4981612;28;20417;-75
2021/04/22 12:47:43;;;;;;;0.80;0.80;;;;;;;;;;4981950;28;20440;-76
2021/04/22 12:50:16;;;;;;;0.80;0.70;;;;;;;;;;4956768;28;706602;-74
2021/04/22 12:52:43;;;;;;;1.77;1.00;;;;;;;;;;4983565;28;20230;-75
2021/04/22 12:55:11;;;;;;;1.20;0.70;;;;;;;;;;4986401;28;20899;-76
2021/04/22 12:57:37;;;;;;;1.33;0.70;;;;;;;;;;4985517;28;20483;-75
2021/04/22 13:00:07;;;;;;;1.20;1.10;;;;;;;;;;4980806;28;20873;-76
2021/04/22 13:02:33;;;;;;;3.47;2.63;;;;;;;;;;4988332;28;20426;-74
2021/04/22 13:05:01;;;;;;;1.27;0.90;;;;;;;;;;4978680;28;20437;-76
2021/04/22 13:07:33;;;;;;;0.70;0.50;;;;;;;;;;4970783;28;20793;-74
2021/04/22 13:09:59;;;;;;;0.93;0.80;;;;;;;;;;4983409;28;20443;-75
2021/04/22 13:12:26;;;;;;;1.00;0.60;;;;;;;;;;4990194;28;20418;-76
2021/04/22 13:14:52;;;;;;;2.03;1.83;;;;;;;;;;4991863;28;20405;-76
2021/04/22 13:17:18;;;;;;;1.57;1.07;;;;;;;;;;4963329;28;20435;-76
2021/04/22 13:19:44;;;;;;;0.80;0.70;;;;;;;;;;4984755;28;20931;-75
2021/04/22 13:22:13;;;;;;;1.30;1.20;;;;;;;;;;4994402;28;20427;-77
2021/04/22 13:24:41;;;;;;;2.00;0.97;;;;;;;;;;5001760;28;20406;-76
2021/04/22 13:27:12;;;;;;;1.47;1.37;;;;;;;;;;4992851;28;20434;-75
2021/04/22 13:29:52;;;;;;;6.67;0.60;;;;;;;;;;4990193;28;20967;-76
2021/04/22 13:32:22;;;;;;;1.53;0.97;;;;;;;;;;4991606;28;20528;-76
2021/04/22 13:34:50;;;;;;;15.30;14.20;;;;;;;;;;4988829;28;20442;-74
2021/04/22 13:37:17;;;;;;;2.80;2.60;;;;;;;;;;4983891;28;20446;-78
2021/04/22 13:39:46;;;;;;;1.83;1.37;;;;;;;;;;4986193;28;20409;-75
2021/04/22 13:42:32;;;;;;;10.43;1.10;;;;;;;;;;4985939;28;20780;-75
2021/04/22 13:44:59;;;;;;;4.60;2.40;;;;;;;;;;4991228;28;20427;-76
2021/04/22 13:47:25;;;;;;;1.33;1.03;;;;;;;;;;5008693;28;20463;-74
2021/04/22 13:49:52;;;;;;;0.80;0.60;;;;;;;;;;5005841;28;20461;-75
2021/04/22 13:52:26;;;;;;;0.70;0.40;;;;;;;;;;4992751;28;20417;-76
2021/04/22 13:54:56;;;;;;;1.07;0.70;;;;;;;;;;4994428;28;20410;-73
2021/04/22 13:57:26;;;;;;;0.80;0.70;;;;;;;;;;4994586;28;20422;-72
2021/04/22 14:00:04;;;;;;;1.37;0.70;;;;;;;;;;4993892;28;20974;-76
2021/04/22 14:02:34;;;;;;;1.57;0.97;;;;;;;;;;4993183;28;20449;-72
2021/04/22 14:05:01;;;;;;;0.90;0.80;;;;;;;;;;4993457;28;20498;-75
2021/04/22 14:07:27;;;;;;;1.00;0.90;;;;;;;;;;4993311;28;20482;-74
2021/04/22 14:10:00;;;;;;;0.80;0.60;;;;;;;;;;4976534;28;20465;-75
2021/04/22 14:12:32;;;;;;;0.90;0.83;;;;;;;;;;4987305;28;20424;-75
2021/04/22 14:15:00;;;;;;;1.57;0.70;;;;;;;;;;4989031;28;20407;-76
2021/04/22 14:17:27;;;;;;;3.80;0.83;;;;;;;;;;4983473;28;20557;-75
2021/04/22 14:19:53;;;;;;;3.30;1.87;;;;;;;;;;4985414;28;20480;-79
2021/04/22 14:22:19;;;;;;;1.20;0.93;;;;;;;;;;4987151;28;20967;-77
2021/04/22 14:24:45;;;;;;;1.00;0.90;;;;;;;;;;4986753;28;20406;-76
2021/04/22 14:27:17;;;;;;;5.50;0.90;;;;;;;;;;4991142;28;21117;-75